Terminal Aerodrome Forecast
Issued by NWS

Home | Current Version | Previous Version | Text Only | Print | Product List | Glossary On
Versions: 1 2 3 4 5 6 7 8 9 10 11 12 13 14 15 16 17 18 19 20 21 22 23
000
FTUS43 KLSX 131100 AAA
TAFUIN
TAF AMD
KUIN 131156Z 1312/1412 18013G23KT P6SM SCT070 BKN200
      TEMPO 1313/1315 4SM -TSRA OVC030CB
     FM131800 19017G27KT 5SM -SHRA OVC030
     FM140400 24014G24KT 4SM -SHRA VCTS OVC015CB
     FM140800 33018G28KT P6SM OVC012=

USA.gov is the U.S. government's official web portal to all federal, state and local government web resources and services.